createdAt,value
2018-10-11T00:01:04.155Z,20.43
2018-10-11T00:03:33.725Z,20.03
2018-10-11T00:06:02.971Z,19.67
2018-10-11T00:08:32.511Z,18.93
2018-10-11T00:11:01.796Z,19.30
2018-10-11T00:13:30.952Z,20.27
2018-10-11T00:16:00.605Z,20.17
2018-10-11T00:18:29.646Z,21.00
2018-10-11T00:20:58.853Z,21.40
2018-10-11T00:23:27.932Z,19.67
2018-10-11T00:25:57.110Z,19.37
2018-10-11T00:28:26.314Z,21.90
2018-10-11T00:30:55.933Z,21.47
2018-10-11T00:33:25.078Z,20.90
2018-10-11T00:38:29.605Z,19.90
2018-10-11T00:40:58.952Z,20.80
2018-10-11T00:43:28.385Z,19.97
2018-10-11T00:45:57.907Z,20.90
2018-10-11T00:48:27.631Z,20.03
2018-10-11T00:50:56.943Z,20.67
2018-10-11T00:53:26.773Z,20.00
2018-10-11T00:55:56.350Z,19.63
2018-10-11T00:58:25.501Z,19.70
2018-10-11T01:00:54.664Z,20.50
2018-10-11T01:03:23.696Z,20.00
2018-10-11T01:05:52.745Z,20.80
2018-10-11T01:08:21.815Z,20.13
2018-10-11T01:10:50.878Z,19.90
2018-10-11T01:13:19.984Z,20.07
2018-10-11T01:15:49.012Z,20.37
2018-10-11T01:18:18.126Z,20.10
2018-10-11T01:20:47.204Z,22.43
2018-10-11T01:23:16.219Z,20.80
2018-10-11T01:25:45.233Z,19.60
2018-10-11T01:28:14.363Z,18.97
2018-10-11T01:30:48.935Z,18.80
2018-10-11T01:33:18.009Z,20.17
2018-10-11T01:35:47.418Z,21.47
2018-10-11T01:38:16.463Z,20.40
2018-10-11T01:40:46.273Z,21.50
2018-10-11T01:43:15.716Z,20.10
2018-10-11T01:45:44.864Z,20.77
2018-10-11T01:48:14.028Z,19.73
2018-10-11T01:50:43.220Z,19.83
2018-10-11T01:53:12.298Z,19.70
2018-10-11T01:55:42.130Z,19.87
2018-10-11T01:58:11.315Z,19.57
2018-10-11T02:00:40.563Z,19.50
2018-10-11T02:03:09.848Z,19.00
2018-10-11T02:05:39.190Z,20.43
2018-10-11T02:08:09.102Z,20.00
2018-10-11T02:10:38.318Z,20.13
2018-10-11T02:13:08.577Z,20.37
2018-10-11T02:15:37.922Z,19.97
2018-10-11T02:18:07.059Z,20.13
2018-10-11T02:20:36.317Z,20.40
2018-10-11T02:23:05.795Z,19.03
2018-10-11T02:25:35.259Z,20.87
2018-10-11T02:28:05.020Z,20.57
2018-10-11T02:30:35.361Z,19.43
2018-10-11T02:33:04.581Z,20.50
2018-10-11T02:35:34.088Z,20.27
2018-10-11T02:38:03.156Z,20.17
2018-10-11T02:40:32.591Z,21.73
2018-10-11T02:43:01.599Z,20.70
2018-10-11T02:45:31.196Z,20.13
2018-10-11T02:48:00.252Z,22.10
2018-10-11T02:50:29.334Z,19.50
2018-10-11T02:52:58.606Z,20.63
2018-10-11T02:55:27.996Z,20.20
2018-10-11T02:58:08.625Z,19.87
2018-10-11T03:00:37.979Z,20.83
2018-10-11T03:03:09.012Z,19.70
2018-10-11T03:05:40.790Z,19.33
2018-10-11T03:08:12.059Z,19.37
2018-10-11T03:10:41.293Z,20.33
2018-10-11T03:13:12.975Z,19.27
2018-10-11T03:15:42.867Z,18.23
2018-10-11T03:18:13.298Z,19.20
2018-10-11T03:20:43.853Z,19.90
2018-10-11T03:23:13.682Z,20.07
2018-10-11T03:25:44.010Z,19.93
2018-10-11T03:28:14.570Z,19.60
2018-10-11T03:30:44.350Z,19.57
2018-10-11T03:33:14.297Z,18.23
2018-10-11T03:35:44.320Z,21.37
2018-10-11T03:38:14.246Z,20.80
2018-10-11T03:40:43.524Z,19.17
2018-10-11T03:43:12.866Z,20.80
2018-10-11T03:45:42.014Z,19.23
2018-10-11T03:48:11.418Z,18.97
2018-10-11T03:50:40.531Z,20.23
2018-10-11T03:53:10.047Z,18.90
2018-10-11T03:55:39.479Z,19.53
2018-10-11T03:58:08.659Z,19.50
2018-10-11T04:00:37.768Z,19.50
2018-10-11T04:03:07.003Z,19.47
2018-10-11T04:05:36.391Z,19.17
2018-10-11T04:08:05.700Z,19.20
2018-10-11T04:10:35.028Z,20.43
2018-10-11T04:13:04.594Z,19.83
2018-10-11T04:15:34.265Z,20.27
2018-10-11T04:18:04.076Z,20.13
2018-10-11T04:20:33.133Z,19.27
2018-10-11T04:23:02.495Z,21.50
2018-10-11T04:25:31.668Z,19.10
2018-10-11T04:28:01.216Z,20.37
2018-10-11T04:30:30.145Z,20.43
2018-10-11T04:32:59.264Z,20.33
2018-10-11T04:35:28.317Z,19.73
2018-10-11T04:37:57.343Z,20.03
2018-10-11T04:40:26.161Z,20.30
2018-10-11T04:42:55.785Z,22.90
2018-10-11T04:45:25.027Z,20.67
2018-10-11T04:47:54.426Z,19.17
2018-10-11T04:50:23.510Z,20.97
2018-10-11T04:52:52.560Z,19.40
2018-10-11T04:55:21.683Z,19.67
2018-10-11T04:57:50.745Z,20.03
2018-10-11T05:00:19.839Z,20.03
2018-10-11T05:02:48.769Z,20.27
2018-10-11T05:05:17.684Z,20.27
2018-10-11T05:07:46.886Z,18.93
2018-10-11T05:10:16.573Z,21.10
2018-10-11T05:12:45.701Z,18.10
2018-10-11T05:15:14.795Z,20.53
2018-10-11T05:17:44.748Z,21.43
2018-10-11T05:20:14.876Z,19.53
2018-10-11T05:22:44.485Z,20.37
2018-10-11T05:25:13.944Z,19.43
2018-10-11T05:27:43.104Z,20.00
2018-10-11T05:30:12.755Z,18.43
2018-10-11T05:32:42.434Z,18.97
2018-10-11T05:35:11.642Z,19.67
2018-10-11T05:37:40.881Z,20.23
2018-10-11T05:40:10.615Z,20.27
2018-10-11T05:42:40.386Z,18.63
2018-10-11T05:45:12.729Z,18.20
2018-10-11T05:47:42.564Z,18.27
2018-10-11T05:50:13.268Z,19.10
2018-10-11T05:52:43.284Z,17.70
2018-10-11T05:55:13.331Z,17.87
2018-10-11T05:57:43.389Z,19.17
2018-10-11T06:00:15.863Z,18.93
2018-10-11T06:02:58.563Z,17.73
2018-10-11T06:05:28.415Z,18.63
2018-10-11T06:07:58.642Z,17.70
2018-10-11T06:10:28.564Z,19.23
2018-10-11T06:12:57.796Z,17.63
2018-10-11T06:15:27.055Z,18.10
2018-10-11T06:17:56.278Z,18.10
2018-10-11T06:20:25.632Z,17.93
2018-10-11T06:22:55.100Z,19.17
2018-10-11T06:25:24.240Z,17.63
2018-10-11T06:27:54.010Z,17.63
2018-10-11T06:30:23.948Z,18.43
2018-10-11T06:32:53.286Z,17.57
2018-10-11T06:35:22.727Z,18.70
2018-10-11T06:37:53.219Z,18.77
2018-10-11T06:40:23.053Z,17.57
2018-10-11T06:42:52.655Z,18.00
2018-10-11T06:45:21.935Z,17.67
2018-10-11T06:47:54.099Z,17.20
2018-10-11T06:50:23.364Z,17.00
2018-10-11T06:55:28.264Z,15.90
2018-10-11T06:57:57.356Z,16.93
2018-10-11T07:00:26.616Z,16.37
2018-10-11T07:02:55.974Z,16.83
2018-10-11T07:05:25.077Z,16.93
2018-10-11T07:07:54.536Z,17.17
2018-10-11T07:10:23.987Z,16.37
2018-10-11T07:12:53.215Z,16.33
2018-10-11T07:15:22.310Z,16.13
2018-10-11T07:17:51.787Z,17.57
2018-10-11T07:20:20.861Z,17.20
2018-10-11T07:22:49.973Z,15.80
2018-10-11T07:25:19.419Z,15.93
2018-10-11T07:27:48.841Z,16.90
2018-10-11T07:30:17.924Z,16.50
2018-10-11T07:32:46.954Z,15.97
2018-10-11T07:35:16.186Z,15.33
2018-10-11T07:37:45.433Z,16.97
2018-10-11T07:40:14.943Z,16.10
2018-10-11T07:42:44.547Z,16.17
2018-10-11T07:45:13.892Z,15.13
2018-10-11T07:47:42.949Z,16.40
2018-10-11T07:50:23.455Z,15.70
2018-10-11T07:52:52.628Z,15.53
2018-10-11T07:55:22.208Z,15.97
2018-10-11T07:57:51.423Z,15.17
2018-10-11T08:00:20.510Z,14.90
2018-10-11T08:02:49.881Z,15.63
2018-10-11T08:05:19.251Z,14.93
2018-10-11T08:07:48.358Z,14.30
2018-10-11T08:10:17.971Z,14.93
2018-10-11T08:12:47.554Z,13.80
2018-10-11T08:15:16.621Z,13.43
2018-10-11T08:17:46.356Z,13.20
2018-10-11T08:20:15.539Z,14.57
2018-10-11T08:22:44.872Z,14.13
2018-10-11T08:25:14.302Z,13.90
2018-10-11T08:27:43.634Z,13.87
2018-10-11T08:30:13.177Z,13.10
2018-10-11T08:32:42.545Z,13.33
2018-10-11T08:35:11.700Z,13.37
2018-10-11T08:37:40.977Z,14.20
2018-10-11T08:40:10.464Z,13.47
2018-10-11T08:42:40.041Z,14.13
2018-10-11T08:45:09.653Z,13.60
2018-10-11T08:47:38.844Z,13.03
2018-10-11T08:50:08.050Z,13.30
2018-10-11T08:52:38.315Z,13.13
2018-10-11T08:55:07.398Z,13.27
2018-10-11T08:57:36.635Z,13.40
2018-10-11T09:00:06.924Z,12.17
2018-10-11T09:02:36.099Z,13.30
2018-10-11T09:05:06.422Z,13.23
2018-10-11T09:07:35.854Z,12.43
2018-10-11T09:10:05.877Z,12.63
2018-10-11T09:12:52.423Z,13.47
2018-10-11T09:15:25.835Z,13.53
2018-10-11T09:17:55.097Z,12.90
2018-10-11T09:20:24.300Z,12.20
2018-10-11T09:22:53.518Z,13.00
2018-10-11T09:25:22.697Z,12.23
2018-10-11T09:27:51.943Z,12.83
2018-10-11T09:30:21.114Z,12.00
2018-10-11T09:32:50.505Z,11.93
2018-10-11T09:35:19.986Z,11.23
2018-10-11T09:37:49.135Z,11.83
2018-10-11T09:40:18.413Z,11.87
2018-10-11T09:42:47.546Z,12.17
2018-10-11T09:45:16.976Z,11.20
2018-10-11T09:47:46.462Z,11.57
2018-10-11T09:50:16.756Z,11.03
2018-10-11T09:52:45.856Z,11.67
2018-10-11T09:55:15.269Z,11.27
2018-10-11T09:57:44.770Z,11.43
2018-10-11T10:00:19.503Z,10.67
2018-10-11T10:02:49.751Z,10.93
2018-10-11T10:05:18.777Z,12.07
2018-10-11T10:07:47.815Z,11.03
2018-10-11T10:10:16.843Z,10.57
2018-10-11T10:12:45.905Z,10.90
2018-10-11T10:15:15.309Z,10.80
2018-10-11T10:17:44.843Z,11.00
2018-10-11T10:20:14.249Z,10.47
2018-10-11T10:22:43.490Z,10.67
2018-10-11T10:25:13.235Z,11.50
2018-10-11T10:27:42.660Z,11.17
2018-10-11T10:30:17.149Z,11.30
2018-10-11T10:32:46.203Z,10.80
2018-10-11T10:35:15.280Z,11.10
2018-10-11T10:37:44.385Z,10.43
2018-10-11T10:40:13.791Z,10.70
2018-10-11T10:42:42.871Z,10.67
2018-10-11T10:45:12.331Z,10.67
2018-10-11T10:47:41.826Z,10.30
2018-10-11T10:50:11.219Z,11.27
2018-10-11T10:52:40.519Z,11.63
2018-10-11T10:55:09.713Z,10.37
2018-10-11T10:57:38.972Z,10.20
2018-10-11T11:00:08.903Z,11.20
2018-10-11T11:02:38.280Z,10.50
2018-10-11T11:05:07.603Z,10.87
2018-10-11T11:07:37.471Z,10.67
2018-10-11T11:10:08.462Z,10.77
2018-10-11T11:12:44.318Z,11.67
2018-10-11T11:15:13.535Z,10.33
2018-10-11T11:17:42.715Z,11.47
2018-10-11T11:20:12.228Z,10.77
2018-10-11T11:22:42.009Z,11.00
2018-10-11T11:25:11.420Z,10.50
2018-10-11T11:27:41.506Z,9.90
2018-10-11T11:30:11.020Z,10.90
2018-10-11T11:32:40.379Z,11.03
2018-10-11T11:35:10.548Z,10.97
2018-10-11T11:37:39.887Z,11.20
2018-10-11T11:40:09.218Z,9.90
2018-10-11T11:42:38.528Z,10.10
2018-10-11T11:45:08.093Z,10.90
2018-10-11T11:47:37.620Z,10.20
2018-10-11T11:50:07.192Z,10.73
2018-10-11T11:52:36.654Z,10.07
2018-10-11T11:55:06.074Z,10.00
2018-10-11T11:57:35.362Z,9.87
2018-10-11T12:00:05.049Z,9.87
2018-10-11T12:02:34.511Z,10.13
2018-10-11T12:05:04.022Z,10.80
2018-10-11T12:07:37.207Z,9.77
2018-10-11T12:10:06.413Z,10.47
2018-10-11T12:12:52.788Z,10.23
2018-10-11T12:15:23.280Z,10.10
2018-10-11T12:17:54.421Z,9.63
2018-10-11T12:20:26.109Z,10.33
2018-10-11T12:22:56.696Z,11.20
2018-10-11T12:25:26.865Z,10.03
2018-10-11T12:27:56.267Z,11.37
2018-10-11T12:30:25.994Z,10.30
2018-10-11T12:32:55.782Z,12.70
2018-10-11T12:35:25.432Z,10.43
2018-10-11T12:37:54.655Z,10.10
2018-10-11T12:40:24.423Z,10.40
2018-10-11T12:42:53.787Z,10.23
2018-10-11T12:45:23.652Z,10.17
2018-10-11T12:47:53.427Z,10.73
2018-10-11T12:50:23.052Z,9.00
2018-10-11T12:52:56.814Z,10.90
2018-10-11T12:55:26.032Z,10.00
2018-10-11T12:57:55.273Z,9.70
2018-10-11T13:00:24.499Z,10.33
2018-10-11T13:02:53.893Z,9.97
2018-10-11T13:05:23.654Z,9.77
2018-10-11T13:07:53.404Z,10.10
2018-10-11T13:10:22.731Z,10.53
2018-10-11T13:12:51.930Z,10.10
2018-10-11T13:15:21.553Z,9.43
2018-10-11T13:17:50.739Z,9.60
2018-10-11T13:20:19.889Z,9.80
2018-10-11T13:22:49.445Z,9.50
2018-10-11T13:25:18.747Z,8.87
2018-10-11T13:27:48.263Z,9.83
2018-10-11T13:30:17.836Z,10.00
2018-10-11T13:32:47.335Z,10.43
2018-10-11T13:35:16.556Z,9.00
2018-10-11T13:37:45.830Z,10.00
2018-10-11T13:40:15.269Z,8.93
2018-10-11T13:42:44.422Z,9.43
2018-10-11T13:45:14.041Z,9.13
2018-10-11T13:47:45.294Z,8.73
2018-10-11T13:50:13.048Z,9.03
2018-10-11T13:52:42.199Z,8.97
2018-10-11T13:55:15.047Z,8.97
2018-10-11T13:57:41.103Z,8.50
2018-10-11T14:00:10.505Z,8.40
2018-10-11T14:02:39.928Z,9.87
2018-10-11T14:05:09.709Z,9.33
2018-10-11T14:07:40.261Z,9.07
2018-10-11T14:10:09.663Z,9.53
2018-10-11T14:12:38.942Z,9.13
2018-10-11T14:15:08.590Z,9.33
2018-10-11T14:17:38.409Z,9.00
2018-10-11T14:20:09.466Z,8.77
2018-10-11T14:22:38.839Z,9.13
2018-10-11T14:25:08.478Z,8.77
2018-10-11T14:27:38.476Z,8.53
2018-10-11T14:30:07.907Z,8.67
2018-10-11T14:32:37.309Z,8.80
2018-10-11T14:35:07.480Z,8.47
2018-10-11T14:37:36.846Z,9.00
2018-10-11T14:40:06.180Z,8.50
2018-10-11T14:42:35.698Z,8.37
2018-10-11T14:45:04.859Z,7.80
2018-10-11T14:47:34.265Z,8.70
2018-10-11T14:50:03.658Z,8.03
2018-10-11T14:52:32.944Z,8.40
2018-10-11T14:55:02.593Z,8.30
2018-10-11T14:57:31.721Z,8.57
2018-10-11T15:00:00.823Z,8.80
2018-10-11T15:02:30.239Z,8.83
2018-10-11T15:04:59.314Z,8.60
2018-10-11T15:07:28.374Z,9.37
2018-10-11T15:09:57.721Z,8.67
2018-10-11T15:12:26.842Z,8.93
2018-10-11T15:14:55.825Z,9.03
2018-10-11T15:17:25.104Z,9.00
2018-10-11T15:19:54.885Z,8.77
2018-10-11T15:22:24.116Z,9.03
2018-10-11T15:24:53.680Z,8.77
2018-10-11T15:27:22.994Z,8.60
2018-10-11T15:29:52.253Z,7.97
2018-10-11T15:32:21.714Z,8.47
2018-10-11T15:34:50.880Z,8.60
2018-10-11T15:37:20.569Z,8.37
2018-10-11T15:39:49.888Z,8.63
2018-10-11T15:42:19.499Z,8.30
2018-10-11T15:44:49.082Z,8.60
2018-10-11T15:47:18.752Z,8.00
2018-10-11T15:49:48.571Z,8.40
2018-10-11T15:52:17.901Z,8.60
2018-10-11T15:54:47.243Z,8.50
2018-10-11T15:57:16.331Z,8.40
2018-10-11T15:59:45.432Z,8.73
2018-10-11T16:02:15.076Z,9.07
2018-10-11T16:04:44.325Z,8.73
2018-10-11T16:07:14.026Z,8.47
2018-10-11T16:09:43.467Z,8.33
2018-10-11T16:12:13.181Z,8.47
2018-10-11T16:14:42.336Z,9.00
2018-10-11T16:17:11.487Z,9.23
2018-10-11T16:19:40.948Z,9.43
2018-10-11T16:22:10.546Z,9.43
2018-10-11T16:24:40.208Z,8.50
2018-10-11T16:27:10.300Z,8.97
2018-10-11T16:29:39.829Z,9.83
2018-10-11T16:32:10.205Z,9.13
2018-10-11T16:34:39.878Z,9.40
2018-10-11T16:37:09.665Z,9.17
2018-10-11T16:39:39.015Z,9.33
2018-10-11T16:42:08.414Z,9.20
2018-10-11T16:44:37.830Z,9.63
2018-10-11T16:47:08.460Z,9.40
2018-10-11T16:49:38.916Z,8.97
2018-10-11T16:52:08.595Z,9.07
2018-10-11T16:54:42.140Z,9.80
2018-10-11T16:57:16.908Z,9.23
2018-10-11T16:59:46.852Z,8.50
2018-10-11T17:02:16.306Z,9.37
2018-10-11T17:04:45.605Z,9.17
2018-10-11T17:07:14.765Z,9.57
2018-10-11T17:09:44.128Z,9.47
2018-10-11T17:12:13.492Z,10.43
2018-10-11T17:14:42.803Z,9.97
2018-10-11T17:17:12.199Z,10.37
2018-10-11T17:19:41.401Z,10.07
2018-10-11T17:22:10.973Z,10.67
2018-10-11T17:24:40.459Z,10.13
2018-10-11T17:27:10.019Z,9.90
2018-10-11T17:29:39.528Z,10.23
2018-10-11T17:32:09.351Z,10.60
2018-10-11T17:34:38.850Z,10.70
2018-10-11T17:37:15.182Z,9.70
2018-10-11T17:39:44.668Z,10.07
2018-10-11T17:42:14.117Z,10.70
2018-10-11T17:44:43.429Z,10.47
2018-10-11T17:47:13.123Z,10.43
2018-10-11T17:49:42.308Z,10.67
2018-10-11T17:52:11.725Z,10.73
2018-10-11T17:54:44.981Z,10.43
2018-10-11T17:57:14.228Z,10.40
2018-10-11T17:59:43.907Z,10.23
2018-10-11T18:02:13.108Z,10.63
2018-10-11T18:04:46.581Z,10.70
2018-10-11T18:07:16.012Z,10.27
2018-10-11T18:09:45.843Z,11.20
2018-10-11T18:12:15.565Z,10.33
2018-10-11T18:14:45.978Z,11.00
2018-10-11T18:17:15.288Z,10.23
2018-10-11T18:19:44.492Z,10.30
2018-10-11T18:22:14.170Z,10.47
2018-10-11T18:24:43.863Z,10.90
2018-10-11T18:27:14.171Z,10.50
2018-10-11T18:29:44.264Z,12.13
2018-10-11T18:32:13.712Z,10.53
2018-10-11T18:34:44.321Z,9.73
2018-10-11T18:37:13.746Z,10.23
2018-10-11T18:39:44.152Z,10.77
2018-10-11T18:42:13.647Z,11.03
2018-10-11T18:44:44.780Z,10.30
2018-10-11T18:47:14.514Z,10.27
2018-10-11T18:49:44.582Z,10.30
2018-10-11T18:52:14.551Z,10.47
2018-10-11T18:54:45.048Z,10.37
2018-10-11T18:57:16.872Z,10.30
2018-10-11T19:02:48.612Z,10.60
2018-10-11T19:05:18.592Z,10.23
2018-10-11T19:07:48.562Z,10.77
2018-10-11T19:10:19.611Z,11.07
2018-10-11T19:12:49.494Z,11.20
2018-10-11T19:15:19.922Z,10.40
2018-10-11T19:17:50.338Z,10.87
2018-10-11T19:20:21.015Z,10.60
2018-10-11T19:22:51.750Z,11.20
2018-10-11T19:25:22.195Z,10.50
2018-10-11T19:27:52.446Z,10.17
2018-10-11T19:30:23.197Z,10.27
2018-10-11T19:32:54.565Z,10.77
2018-10-11T19:35:25.074Z,11.20
2018-10-11T19:37:54.977Z,10.63
2018-10-11T19:40:24.883Z,9.87
2018-10-11T19:42:55.169Z,9.97
2018-10-11T19:45:25.194Z,9.93
2018-10-11T19:47:55.079Z,10.37
2018-10-11T19:50:25.421Z,10.43
2018-10-11T19:52:55.821Z,10.87
2018-10-11T19:55:26.146Z,10.17
2018-10-11T19:57:56.467Z,11.67
2018-10-11T20:00:26.371Z,10.03
2018-10-11T20:02:56.517Z,10.33
2018-10-11T20:05:27.184Z,10.50
2018-10-11T20:07:57.885Z,9.97
2018-10-11T20:10:28.112Z,10.77
2018-10-11T20:12:58.605Z,10.17
2018-10-11T20:15:29.948Z,10.23
2018-10-11T20:18:03.902Z,9.77
2018-10-11T20:20:31.065Z,10.03
2018-10-11T20:23:00.961Z,9.97
2018-10-11T20:25:31.034Z,9.90
2018-10-11T20:28:05.194Z,10.07
2018-10-11T20:30:35.396Z,10.07
2018-10-11T20:33:05.558Z,9.97
2018-10-11T20:35:36.430Z,9.70
2018-10-11T20:38:07.264Z,10.53
2018-10-11T20:40:37.687Z,10.10
2018-10-11T20:43:07.615Z,9.80
2018-10-11T20:45:37.531Z,9.50
2018-10-11T20:48:08.662Z,9.60
2018-10-11T20:50:38.627Z,11.17
2018-10-11T20:53:09.100Z,9.80
2018-10-11T20:55:39.303Z,10.20
2018-10-11T20:58:10.227Z,9.50
2018-10-11T21:00:40.039Z,9.97
2018-10-11T21:03:12.505Z,9.97
2018-10-11T21:05:44.250Z,9.87
2018-10-11T21:08:15.211Z,9.90
2018-10-11T21:10:46.408Z,10.77
2018-10-11T21:13:17.459Z,10.70
2018-10-11T21:15:47.301Z,9.37
2018-10-11T21:18:16.994Z,9.77
2018-10-11T21:20:46.432Z,9.77
2018-10-11T21:23:16.095Z,9.27
2018-10-11T21:25:45.444Z,9.97
2018-10-11T21:28:14.669Z,9.70
2018-10-11T21:30:44.727Z,10.33
2018-10-11T21:33:14.101Z,9.30
2018-10-11T21:35:43.878Z,9.70
2018-10-11T21:38:13.029Z,9.17
2018-10-11T21:40:42.384Z,9.40
2018-10-11T21:43:12.005Z,9.17
2018-10-11T21:45:41.735Z,10.20
2018-10-11T21:48:11.264Z,9.20
2018-10-11T21:50:41.208Z,9.60
2018-10-11T21:53:11.149Z,9.10
2018-10-11T21:55:40.608Z,9.07
2018-10-11T21:58:10.384Z,9.30
2018-10-11T22:00:46.532Z,9.57
2018-10-11T22:03:16.181Z,9.73
2018-10-11T22:05:45.638Z,9.60
2018-10-11T22:08:15.097Z,9.13
2018-10-11T22:10:44.550Z,9.40
2018-10-11T22:13:14.160Z,9.00
2018-10-11T22:15:43.708Z,9.57
2018-10-11T22:18:13.247Z,9.33
2018-10-11T22:20:42.935Z,9.33
2018-10-11T22:23:12.721Z,9.60
2018-10-11T22:25:42.731Z,8.80
2018-10-11T22:28:13.730Z,8.57
2018-10-11T22:30:44.439Z,9.13
2018-10-11T22:33:14.191Z,9.30
2018-10-11T22:35:43.577Z,8.73
2018-10-11T22:38:14.888Z,8.73
2018-10-11T22:40:44.225Z,9.10
2018-10-11T22:43:13.726Z,9.33
2018-10-11T22:45:43.093Z,9.50
2018-10-11T22:48:12.952Z,8.63
2018-10-11T22:50:42.668Z,8.17
2018-10-11T22:53:12.022Z,8.63
2018-10-11T22:55:41.312Z,8.37
2018-10-11T22:58:10.432Z,8.43
2018-10-11T23:00:40.026Z,8.33
2018-10-11T23:03:09.670Z,8.80
2018-10-11T23:05:39.554Z,8.40
2018-10-11T23:08:09.085Z,8.83
2018-10-11T23:10:38.454Z,8.60
2018-10-11T23:13:07.719Z,8.40
2018-10-11T23:15:37.144Z,8.67
2018-10-11T23:18:06.553Z,8.93
2018-10-11T23:20:35.851Z,9.23
2018-10-11T23:23:05.655Z,8.73
2018-10-11T23:25:35.180Z,9.00
2018-10-11T23:28:04.543Z,8.93
2018-10-11T23:30:33.860Z,8.97
2018-10-11T23:33:03.158Z,9.33
2018-10-11T23:35:32.260Z,9.43
2018-10-11T23:38:01.503Z,9.07
2018-10-11T23:40:30.860Z,8.80
2018-10-11T23:43:00.173Z,8.87
2018-10-11T23:45:29.781Z,9.23
2018-10-11T23:47:59.432Z,9.37
2018-10-11T23:50:29.071Z,9.27
2018-10-11T23:52:58.769Z,9.20
2018-10-11T23:55:28.019Z,8.97
2018-10-11T23:57:57.222Z,9.73
